sensor_id;sensor_type;location;lat;lon;timestamp;P1;durP1;ratioP1;P2;durP2;ratioP2
77262;SDS011;66373;52.334;4.806;2023-02-18T00:00:57;10.57;;;4.40;;
77262;SDS011;66373;52.334;4.806;2023-02-18T00:03:24;12.00;;;4.68;;
77262;SDS011;66373;52.334;4.806;2023-02-18T00:05:52;9.18;;;4.38;;
77262;SDS011;66373;52.334;4.806;2023-02-18T00:08:19;8.63;;;3.72;;
77262;SDS011;66373;52.334;4.806;2023-02-18T00:10:47;10.45;;;4.50;;
77262;SDS011;66373;52.334;4.806;2023-02-18T00:13:14;9.18;;;4.10;;
77262;SDS011;66373;52.334;4.806;2023-02-18T00:15:41;9.20;;;4.35;;
77262;SDS011;66373;52.334;4.806;2023-02-18T00:18:07;9.90;;;4.30;;
77262;SDS011;66373;52.334;4.806;2023-02-18T00:20:34;10.07;;;4.38;;
77262;SDS011;66373;52.334;4.806;2023-02-18T00:23:05;9.88;;;3.95;;
77262;SDS011;66373;52.334;4.806;2023-02-18T00:25:32;7.55;;;3.88;;
77262;SDS011;66373;52.334;4.806;2023-02-18T00:27:59;7.35;;;3.33;;
77262;SDS011;66373;52.334;4.806;2023-02-18T00:30:26;9.68;;;4.63;;
77262;SDS011;66373;52.334;4.806;2023-02-18T00:32:54;8.13;;;4.05;;
77262;SDS011;66373;52.334;4.806;2023-02-18T00:35:21;6.85;;;3.88;;
77262;SDS011;66373;52.334;4.806;2023-02-18T00:37:49;6.10;;;3.17;;
77262;SDS011;66373;52.334;4.806;2023-02-18T00:40:18;8.25;;;4.28;;
77262;SDS011;66373;52.334;4.806;2023-02-18T00:42:45;8.95;;;4.05;;
77262;SDS011;66373;52.334;4.806;2023-02-18T00:45:13;8.15;;;3.67;;
77262;SDS011;66373;52.334;4.806;2023-02-18T00:47:40;6.80;;;3.60;;
77262;SDS011;66373;52.334;4.806;2023-02-18T00:50:07;9.65;;;3.83;;
77262;SDS011;66373;52.334;4.806;2023-02-18T00:52:35;6.45;;;3.53;;
77262;SDS011;66373;52.334;4.806;2023-02-18T00:55:02;6.82;;;3.72;;
77262;SDS011;66373;52.334;4.806;2023-02-18T00:57:30;5.53;;;3.60;;
77262;SDS011;66373;52.334;4.806;2023-02-18T00:59:57;6.82;;;3.67;;
77262;SDS011;66373;52.334;4.806;2023-02-18T01:02:24;6.25;;;3.65;;
77262;SDS011;66373;52.334;4.806;2023-02-18T01:04:50;6.65;;;4.03;;
77262;SDS011;66373;52.334;4.806;2023-02-18T01:07:17;8.70;;;4.07;;
77262;SDS011;66373;52.334;4.806;2023-02-18T01:09:44;7.10;;;3.55;;
77262;SDS011;66373;52.334;4.806;2023-02-18T01:12:12;7.18;;;3.67;;
77262;SDS011;66373;52.334;4.806;2023-02-18T01:14:40;10.07;;;3.92;;
77262;SDS011;66373;52.334;4.806;2023-02-18T01:17:08;6.65;;;3.70;;
77262;SDS011;66373;52.334;4.806;2023-02-18T01:19:35;8.95;;;4.07;;
77262;SDS011;66373;52.334;4.806;2023-02-18T01:22:02;6.45;;;3.60;;
77262;SDS011;66373;52.334;4.806;2023-02-18T01:24:31;8.95;;;4.20;;
77262;SDS011;66373;52.334;4.806;2023-02-18T01:26:58;8.07;;;3.72;;
77262;SDS011;66373;52.334;4.806;2023-02-18T01:29:25;6.20;;;3.72;;
77262;SDS011;66373;52.334;4.806;2023-02-18T01:31:55;9.90;;;3.97;;
77262;SDS011;66373;52.334;4.806;2023-02-18T01:34:22;4.88;;;3.08;;
77262;SDS011;66373;52.334;4.806;2023-02-18T01:36:49;6.07;;;3.70;;
77262;SDS011;66373;52.334;4.806;2023-02-18T01:39:16;10.38;;;4.20;;
77262;SDS011;66373;52.334;4.806;2023-02-18T01:41:42;11.88;;;4.05;;
77262;SDS011;66373;52.334;4.806;2023-02-18T01:44:11;7.22;;;3.83;;
77262;SDS011;66373;52.334;4.806;2023-02-18T01:46:40;6.63;;;3.40;;
77262;SDS011;66373;52.334;4.806;2023-02-18T01:49:08;6.15;;;3.45;;
77262;SDS011;66373;52.334;4.806;2023-02-18T01:51:38;8.00;;;3.75;;
77262;SDS011;66373;52.334;4.806;2023-02-18T01:54:09;7.35;;;3.45;;
77262;SDS011;66373;52.334;4.806;2023-02-18T01:56:41;6.07;;;3.20;;
77262;SDS011;66373;52.334;4.806;2023-02-18T01:59:14;7.65;;;4.00;;
77262;SDS011;66373;52.334;4.806;2023-02-18T02:01:44;7.57;;;3.70;;
77262;SDS011;66373;52.334;4.806;2023-02-18T02:04:12;9.02;;;3.70;;
77262;SDS011;66373;52.334;4.806;2023-02-18T02:06:39;7.38;;;3.13;;
77262;SDS011;66373;52.334;4.806;2023-02-18T02:09:08;5.90;;;3.58;;
77262;SDS011;66373;52.334;4.806;2023-02-18T02:11:40;5.15;;;3.00;;
77262;SDS011;66373;52.334;4.806;2023-02-18T02:14:28;5.45;;;3.28;;
77262;SDS011;66373;52.334;4.806;2023-02-18T02:17:09;7.82;;;3.80;;
77262;SDS011;66373;52.334;4.806;2023-02-18T02:25:50;7.57;;;3.75;;
77262;SDS011;66373;52.334;4.806;2023-02-18T02:28:42;4.68;;;3.28;;
77262;SDS011;66373;52.334;4.806;2023-02-18T02:34:36;5.32;;;3.22;;
77262;SDS011;66373;52.334;4.806;2023-02-18T02:37:12;4.25;;;3.40;;
77262;SDS011;66373;52.334;4.806;2023-02-18T02:39:45;5.53;;;3.60;;
77262;SDS011;66373;52.334;4.806;2023-02-18T02:42:24;6.45;;;4.00;;
77262;SDS011;66373;52.334;4.806;2023-02-18T02:44:55;6.57;;;3.42;;
77262;SDS011;66373;52.334;4.806;2023-02-18T02:47:31;6.47;;;3.97;;
77262;SDS011;66373;52.334;4.806;2023-02-18T02:50:07;8.43;;;4.07;;
77262;SDS011;66373;52.334;4.806;2023-02-18T02:52:40;7.38;;;4.00;;
77262;SDS011;66373;52.334;4.806;2023-02-18T02:55:12;6.43;;;4.25;;
77262;SDS011;66373;52.334;4.806;2023-02-18T02:57:46;4.00;;;3.45;;
77262;SDS011;66373;52.334;4.806;2023-02-18T03:00:20;7.72;;;3.80;;
77262;SDS011;66373;52.334;4.806;2023-02-18T03:02:57;5.53;;;3.78;;
77262;SDS011;66373;52.334;4.806;2023-02-18T03:05:44;6.65;;;3.70;;
77262;SDS011;66373;52.334;4.806;2023-02-18T03:08:29;6.53;;;3.60;;
77262;SDS011;66373;52.334;4.806;2023-02-18T03:13:41;6.50;;;3.40;;
77262;SDS011;66373;52.334;4.806;2023-02-18T03:16:26;6.30;;;3.42;;
77262;SDS011;66373;52.334;4.806;2023-02-18T03:18:59;5.63;;;3.60;;
77262;SDS011;66373;52.334;4.806;2023-02-18T03:21:34;5.00;;;3.58;;
77262;SDS011;66373;52.334;4.806;2023-02-18T03:24:06;6.05;;;3.47;;
77262;SDS011;66373;52.334;4.806;2023-02-18T03:26:36;5.65;;;3.10;;
77262;SDS011;66373;52.334;4.806;2023-02-18T03:29:07;4.32;;;3.20;;
77262;SDS011;66373;52.334;4.806;2023-02-18T03:31:37;6.40;;;3.78;;
77262;SDS011;66373;52.334;4.806;2023-02-18T03:34:08;4.70;;;3.28;;
77262;SDS011;66373;52.334;4.806;2023-02-18T03:36:39;4.78;;;3.60;;
77262;SDS011;66373;52.334;4.806;2023-02-18T03:39:08;6.35;;;3.55;;
77262;SDS011;66373;52.334;4.806;2023-02-18T03:41:39;6.22;;;3.38;;
77262;SDS011;66373;52.334;4.806;2023-02-18T03:44:07;4.88;;;3.20;;
77262;SDS011;66373;52.334;4.806;2023-02-18T03:46:36;8.48;;;3.50;;
77262;SDS011;66373;52.334;4.806;2023-02-18T03:49:04;6.28;;;3.08;;
77262;SDS011;66373;52.334;4.806;2023-02-18T03:51:31;5.47;;;3.42;;
77262;SDS011;66373;52.334;4.806;2023-02-18T03:53:59;4.55;;;2.80;;
77262;SDS011;66373;52.334;4.806;2023-02-18T03:56:26;6.00;;;2.85;;
77262;SDS011;66373;52.334;4.806;2023-02-18T03:58:53;4.20;;;2.80;;
77262;SDS011;66373;52.334;4.806;2023-02-18T04:01:20;6.30;;;3.20;;
77262;SDS011;66373;52.334;4.806;2023-02-18T04:03:47;4.38;;;3.00;;
77262;SDS011;66373;52.334;4.806;2023-02-18T04:06:14;3.22;;;2.65;;
77262;SDS011;66373;52.334;4.806;2023-02-18T04:08:40;3.42;;;2.63;;
77262;SDS011;66373;52.334;4.806;2023-02-18T04:11:09;3.42;;;2.85;;
77262;SDS011;66373;52.334;4.806;2023-02-18T04:13:36;3.80;;;2.70;;
77262;SDS011;66373;52.334;4.806;2023-02-18T04:16:02;3.75;;;2.55;;
77262;SDS011;66373;52.334;4.806;2023-02-18T04:18:29;3.55;;;2.75;;
77262;SDS011;66373;52.334;4.806;2023-02-18T04:20:56;3.67;;;2.72;;
77262;SDS011;66373;52.334;4.806;2023-02-18T04:23:23;4.93;;;2.80;;
77262;SDS011;66373;52.334;4.806;2023-02-18T04:25:50;3.97;;;2.55;;
77262;SDS011;66373;52.334;4.806;2023-02-18T04:28:18;3.55;;;2.28;;
77262;SDS011;66373;52.334;4.806;2023-02-18T04:30:46;3.70;;;2.63;;
77262;SDS011;66373;52.334;4.806;2023-02-18T04:33:13;5.25;;;2.70;;
77262;SDS011;66373;52.334;4.806;2023-02-18T04:35:40;5.63;;;2.63;;
77262;SDS011;66373;52.334;4.806;2023-02-18T04:38:07;3.25;;;2.60;;
77262;SDS011;66373;52.334;4.806;2023-02-18T04:40:35;3.30;;;2.60;;
77262;SDS011;66373;52.334;4.806;2023-02-18T04:43:02;3.35;;;2.67;;
77262;SDS011;66373;52.334;4.806;2023-02-18T04:45:30;4.10;;;2.95;;
77262;SDS011;66373;52.334;4.806;2023-02-18T04:47:57;3.17;;;2.50;;
77262;SDS011;66373;52.334;4.806;2023-02-18T04:50:24;3.75;;;2.70;;
77262;SDS011;66373;52.334;4.806;2023-02-18T04:52:51;6.50;;;2.97;;
77262;SDS011;66373;52.334;4.806;2023-02-18T04:55:17;6.55;;;2.72;;
77262;SDS011;66373;52.334;4.806;2023-02-18T04:57:44;4.00;;;2.63;;
77262;SDS011;66373;52.334;4.806;2023-02-18T05:00:14;3.45;;;2.85;;
77262;SDS011;66373;52.334;4.806;2023-02-18T05:02:44;6.45;;;2.60;;
77262;SDS011;66373;52.334;4.806;2023-02-18T05:05:12;3.63;;;2.88;;
77262;SDS011;66373;52.334;4.806;2023-02-18T05:07:39;5.75;;;2.58;;
77262;SDS011;66373;52.334;4.806;2023-02-18T05:10:07;4.28;;;2.67;;
77262;SDS011;66373;52.334;4.806;2023-02-18T05:12:34;3.70;;;2.67;;
77262;SDS011;66373;52.334;4.806;2023-02-18T05:15:01;8.30;;;2.50;;
77262;SDS011;66373;52.334;4.806;2023-02-18T05:17:28;3.75;;;2.10;;
77262;SDS011;66373;52.334;4.806;2023-02-18T05:19:56;5.78;;;2.67;;
77262;SDS011;66373;52.334;4.806;2023-02-18T05:22:23;4.57;;;2.50;;
77262;SDS011;66373;52.334;4.806;2023-02-18T05:24:50;3.55;;;2.42;;
77262;SDS011;66373;52.334;4.806;2023-02-18T05:27:17;3.88;;;2.35;;
77262;SDS011;66373;52.334;4.806;2023-02-18T05:29:43;5.32;;;2.70;;
77262;SDS011;66373;52.334;4.806;2023-02-18T05:32:10;4.30;;;2.33;;
77262;SDS011;66373;52.334;4.806;2023-02-18T05:34:37;3.75;;;2.30;;
77262;SDS011;66373;52.334;4.806;2023-02-18T05:37:05;4.72;;;2.20;;
77262;SDS011;66373;52.334;4.806;2023-02-18T05:39:32;3.25;;;2.00;;
77262;SDS011;66373;52.334;4.806;2023-02-18T05:41:59;9.75;;;2.55;;
77262;SDS011;66373;52.334;4.806;2023-02-18T05:44:25;4.50;;;2.53;;
77262;SDS011;66373;52.334;4.806;2023-02-18T05:46:55;3.67;;;2.00;;
77262;SDS011;66373;52.334;4.806;2023-02-18T05:49:22;3.45;;;2.25;;
77262;SDS011;66373;52.334;4.806;2023-02-18T05:51:49;5.32;;;2.42;;
77262;SDS011;66373;52.334;4.806;2023-02-18T05:54:17;4.53;;;2.28;;
77262;SDS011;66373;52.334;4.806;2023-02-18T05:56:44;3.05;;;2.22;;
77262;SDS011;66373;52.334;4.806;2023-02-18T05:59:11;5.72;;;2.53;;
77262;SDS011;66373;52.334;4.806;2023-02-18T06:01:38;4.22;;;2.08;;
77262;SDS011;66373;52.334;4.806;2023-02-18T06:04:05;2.35;;;1.80;;
77262;SDS011;66373;52.334;4.806;2023-02-18T06:06:33;4.80;;;2.22;;
77262;SDS011;66373;52.334;4.806;2023-02-18T06:09:00;3.30;;;2.20;;
77262;SDS011;66373;52.334;4.806;2023-02-18T06:11:28;6.50;;;2.53;;
77262;SDS011;66373;52.334;4.806;2023-02-18T06:13:55;5.70;;;2.40;;
77262;SDS011;66373;52.334;4.806;2023-02-18T06:16:21;3.17;;;1.83;;
77262;SDS011;66373;52.334;4.806;2023-02-18T06:18:48;4.28;;;2.03;;
77262;SDS011;66373;52.334;4.806;2023-02-18T06:21:15;8.27;;;2.50;;
77262;SDS011;66373;52.334;4.806;2023-02-18T06:23:42;5.18;;;2.17;;
77262;SDS011;66373;52.334;4.806;2023-02-18T06:26:09;8.68;;;2.40;;
77262;SDS011;66373;52.334;4.806;2023-02-18T06:28:37;4.47;;;2.10;;
77262;SDS011;66373;52.334;4.806;2023-02-18T06:31:04;3.90;;;2.28;;
77262;SDS011;66373;52.334;4.806;2023-02-18T06:33:30;4.95;;;2.25;;
77262;SDS011;66373;52.334;4.806;2023-02-18T06:35:58;5.40;;;2.42;;
77262;SDS011;66373;52.334;4.806;2023-02-18T06:38:27;4.47;;;2.03;;
77262;SDS011;66373;52.334;4.806;2023-02-18T06:40:54;4.63;;;2.70;;
77262;SDS011;66373;52.334;4.806;2023-02-18T06:43:21;6.25;;;2.28;;
77262;SDS011;66373;52.334;4.806;2023-02-18T06:45:49;3.50;;;2.03;;
77262;SDS011;66373;52.334;4.806;2023-02-18T06:48:16;2.67;;;2.03;;
77262;SDS011;66373;52.334;4.806;2023-02-18T06:50:45;8.68;;;2.58;;
77262;SDS011;66373;52.334;4.806;2023-02-18T06:53:11;6.18;;;2.38;;
77262;SDS011;66373;52.334;4.806;2023-02-18T06:55:39;3.58;;;2.05;;
77262;SDS011;66373;52.334;4.806;2023-02-18T06:58:08;5.20;;;2.05;;
77262;SDS011;66373;52.334;4.806;2023-02-18T07:00:34;4.60;;;2.13;;
77262;SDS011;66373;52.334;4.806;2023-02-18T07:03:03;3.92;;;2.25;;
77262;SDS011;66373;52.334;4.806;2023-02-18T07:05:30;4.22;;;2.67;;
77262;SDS011;66373;52.334;4.806;2023-02-18T07:07:57;5.47;;;2.10;;
77262;SDS011;66373;52.334;4.806;2023-02-18T07:10:23;4.85;;;2.50;;
77262;SDS011;66373;52.334;4.806;2023-02-18T07:12:51;6.40;;;2.35;;
77262;SDS011;66373;52.334;4.806;2023-02-18T07:15:17;6.30;;;2.60;;
77262;SDS011;66373;52.334;4.806;2023-02-18T07:17:48;4.47;;;2.00;;
77262;SDS011;66373;52.334;4.806;2023-02-18T07:20:18;4.22;;;2.17;;
77262;SDS011;66373;52.334;4.806;2023-02-18T07:22:47;3.97;;;2.20;;
77262;SDS011;66373;52.334;4.806;2023-02-18T07:25:14;3.22;;;2.03;;
77262;SDS011;66373;52.334;4.806;2023-02-18T07:27:41;4.15;;;2.28;;
77262;SDS011;66373;52.334;4.806;2023-02-18T07:30:08;5.75;;;2.53;;
77262;SDS011;66373;52.334;4.806;2023-02-18T07:32:36;3.90;;;2.22;;
77262;SDS011;66373;52.334;4.806;2023-02-18T07:35:02;3.47;;;2.05;;
77262;SDS011;66373;52.334;4.806;2023-02-18T07:37:32;9.43;;;2.88;;
77262;SDS011;66373;52.334;4.806;2023-02-18T07:39:58;5.50;;;2.35;;
77262;SDS011;66373;52.334;4.806;2023-02-18T07:42:25;6.00;;;2.40;;
77262;SDS011;66373;52.334;4.806;2023-02-18T07:44:52;4.72;;;2.38;;
77262;SDS011;66373;52.334;4.806;2023-02-18T07:47:19;7.45;;;2.35;;
77262;SDS011;66373;52.334;4.806;2023-02-18T07:49:46;4.72;;;1.98;;
77262;SDS011;66373;52.334;4.806;2023-02-18T07:52:13;5.90;;;2.30;;
77262;SDS011;66373;52.334;4.806;2023-02-18T07:54:42;4.70;;;2.15;;
77262;SDS011;66373;52.334;4.806;2023-02-18T07:57:08;3.75;;;2.13;;
77262;SDS011;66373;52.334;4.806;2023-02-18T07:59:35;5.05;;;2.50;;
77262;SDS011;66373;52.334;4.806;2023-02-18T08:02:02;4.30;;;2.05;;
77262;SDS011;66373;52.334;4.806;2023-02-18T08:04:31;4.72;;;2.03;;
77262;SDS011;66373;52.334;4.806;2023-02-18T08:06:58;4.20;;;1.70;;
77262;SDS011;66373;52.334;4.806;2023-02-18T08:09:25;5.72;;;2.13;;
77262;SDS011;66373;52.334;4.806;2023-02-18T08:11:53;3.63;;;1.73;;
77262;SDS011;66373;52.334;4.806;2023-02-18T08:14:20;5.60;;;2.60;;
77262;SDS011;66373;52.334;4.806;2023-02-18T08:16:47;5.95;;;2.15;;
77262;SDS011;66373;52.334;4.806;2023-02-18T08:19:14;6.15;;;2.03;;
77262;SDS011;66373;52.334;4.806;2023-02-18T08:21:40;9.05;;;2.45;;
77262;SDS011;66373;52.334;4.806;2023-02-18T08:24:07;4.40;;;2.20;;
77262;SDS011;66373;52.334;4.806;2023-02-18T08:26:34;4.40;;;1.92;;
77262;SDS011;66373;52.334;4.806;2023-02-18T08:29:02;6.93;;;2.35;;
77262;SDS011;66373;52.334;4.806;2023-02-18T08:31:30;4.20;;;2.50;;
77262;SDS011;66373;52.334;4.806;2023-02-18T08:33:57;6.03;;;2.55;;
77262;SDS011;66373;52.334;4.806;2023-02-18T08:36:25;6.15;;;3.22;;
77262;SDS011;66373;52.334;4.806;2023-02-18T08:38:52;6.80;;;3.47;;
77262;SDS011;66373;52.334;4.806;2023-02-18T08:41:19;6.95;;;3.85;;
77262;SDS011;66373;52.334;4.806;2023-02-18T08:43:47;7.88;;;4.60;;
77262;SDS011;66373;52.334;4.806;2023-02-18T08:46:15;5.90;;;3.83;;
77262;SDS011;66373;52.334;4.806;2023-02-18T08:48:42;12.30;;;4.60;;
77262;SDS011;66373;52.334;4.806;2023-02-18T08:51:10;7.85;;;3.92;;
77262;SDS011;66373;52.334;4.806;2023-02-18T08:53:39;7.82;;;3.90;;
77262;SDS011;66373;52.334;4.806;2023-02-18T08:56:06;8.40;;;4.38;;
77262;SDS011;66373;52.334;4.806;2023-02-18T08:58:34;9.02;;;3.78;;
77262;SDS011;66373;52.334;4.806;2023-02-18T09:01:02;9.85;;;4.22;;
77262;SDS011;66373;52.334;4.806;2023-02-18T09:03:31;9.05;;;3.70;;
77262;SDS011;66373;52.334;4.806;2023-02-18T09:05:58;9.68;;;3.35;;
77262;SDS011;66373;52.334;4.806;2023-02-18T09:08:26;8.05;;;3.03;;
77262;SDS011;66373;52.334;4.806;2023-02-18T09:10:56;8.68;;;3.58;;
77262;SDS011;66373;52.334;4.806;2023-02-18T09:13:23;7.30;;;3.40;;
77262;SDS011;66373;52.334;4.806;2023-02-18T09:15:57;7.90;;;3.67;;
77262;SDS011;66373;52.334;4.806;2023-02-18T09:18:25;4.85;;;3.33;;
77262;SDS011;66373;52.334;4.806;2023-02-18T09:20:55;6.70;;;2.95;;
77262;SDS011;66373;52.334;4.806;2023-02-18T09:23:23;7.78;;;3.13;;
77262;SDS011;66373;52.334;4.806;2023-02-18T09:25:50;9.07;;;3.60;;
77262;SDS011;66373;52.334;4.806;2023-02-18T09:28:18;11.15;;;3.35;;
77262;SDS011;66373;52.334;4.806;2023-02-18T09:30:46;6.70;;;3.05;;
77262;SDS011;66373;52.334;4.806;2023-02-18T09:33:13;5.35;;;2.80;;
77262;SDS011;66373;52.334;4.806;2023-02-18T09:35:40;5.53;;;3.30;;
77262;SDS011;66373;52.334;4.806;2023-02-18T09:38:10;6.35;;;3.33;;
77262;SDS011;66373;52.334;4.806;2023-02-18T09:40:39;10.38;;;3.30;;
77262;SDS011;66373;52.334;4.806;2023-02-18T09:43:12;9.30;;;3.25;;
77262;SDS011;66373;52.334;4.806;2023-02-18T09:45:47;7.78;;;3.40;;
77262;SDS011;66373;52.334;4.806;2023-02-18T09:48:15;5.85;;;3.00;;
77262;SDS011;66373;52.334;4.806;2023-02-18T09:50:41;9.20;;;3.00;;
77262;SDS011;66373;52.334;4.806;2023-02-18T09:53:15;6.88;;;2.78;;
77262;SDS011;66373;52.334;4.806;2023-02-18T09:55:42;8.18;;;3.00;;
77262;SDS011;66373;52.334;4.806;2023-02-18T09:58:11;7.70;;;3.15;;
77262;SDS011;66373;52.334;4.806;2023-02-18T10:00:41;6.20;;;2.67;;
77262;SDS011;66373;52.334;4.806;2023-02-18T10:03:12;5.53;;;3.00;;
77262;SDS011;66373;52.334;4.806;2023-02-18T10:05:42;6.18;;;2.90;;
77262;SDS011;66373;52.334;4.806;2023-02-18T10:08:20;6.18;;;2.95;;
77262;SDS011;66373;52.334;4.806;2023-02-18T10:10:51;6.85;;;2.78;;
77262;SDS011;66373;52.334;4.806;2023-02-18T10:13:18;5.10;;;2.63;;
77262;SDS011;66373;52.334;4.806;2023-02-18T10:15:48;6.82;;;2.60;;
77262;SDS011;66373;52.334;4.806;2023-02-18T10:18:25;6.25;;;2.80;;
77262;SDS011;66373;52.334;4.806;2023-02-18T10:21:00;7.40;;;2.42;;
77262;SDS011;66373;52.334;4.806;2023-02-18T10:23:33;7.85;;;2.97;;
77262;SDS011;66373;52.334;4.806;2023-02-18T10:26:05;5.00;;;2.80;;
77262;SDS011;66373;52.334;4.806;2023-02-18T10:28:36;8.23;;;3.03;;
77262;SDS011;66373;52.334;4.806;2023-02-18T10:31:04;7.72;;;3.03;;
77262;SDS011;66373;52.334;4.806;2023-02-18T10:33:35;6.97;;;2.75;;
77262;SDS011;66373;52.334;4.806;2023-02-18T10:36:12;9.52;;;3.25;;
77262;SDS011;66373;52.334;4.806;2023-02-18T10:38:57;8.77;;;2.80;;
77262;SDS011;66373;52.334;4.806;2023-02-18T10:44:11;7.40;;;2.60;;
77262;SDS011;66373;52.334;4.806;2023-02-18T10:46:49;5.70;;;2.40;;
77262;SDS011;66373;52.334;4.806;2023-02-18T10:49:38;7.78;;;2.85;;
77262;SDS011;66373;52.334;4.806;2023-02-18T10:52:18;9.35;;;2.90;;
77262;SDS011;66373;52.334;4.806;2023-02-18T10:54:49;8.00;;;3.13;;
77262;SDS011;66373;52.334;4.806;2023-02-18T10:57:19;7.25;;;2.78;;
77262;SDS011;66373;52.334;4.806;2023-02-18T10:59:53;6.25;;;2.67;;
77262;SDS011;66373;52.334;4.806;2023-02-18T11:02:27;6.70;;;2.65;;
77262;SDS011;66373;52.334;4.806;2023-02-18T11:04:57;8.35;;;3.20;;
77262;SDS011;66373;52.334;4.806;2023-02-18T11:07:29;8.48;;;3.20;;
77262;SDS011;66373;52.334;4.806;2023-02-18T11:10:01;9.10;;;3.20;;
77262;SDS011;66373;52.334;4.806;2023-02-18T11:12:42;9.43;;;2.58;;
77262;SDS011;66373;52.334;4.806;2023-02-18T11:15:16;9.63;;;2.92;;
77262;SDS011;66373;52.334;4.806;2023-02-18T11:17:46;10.27;;;2.60;;
77262;SDS011;66373;52.334;4.806;2023-02-18T11:20:25;10.23;;;3.22;;
77262;SDS011;66373;52.334;4.806;2023-02-18T11:22:59;8.63;;;3.00;;
77262;SDS011;66373;52.334;4.806;2023-02-18T11:25:51;8.27;;;3.20;;
77262;SDS011;66373;52.334;4.806;2023-02-18T11:28:32;10.50;;;2.85;;
77262;SDS011;66373;52.334;4.806;2023-02-18T11:31:08;8.00;;;2.42;;
77262;SDS011;66373;52.334;4.806;2023-02-18T11:33:41;10.23;;;2.70;;
77262;SDS011;66373;52.334;4.806;2023-02-18T11:36:15;9.20;;;3.03;;
77262;SDS011;66373;52.334;4.806;2023-02-18T11:38:47;7.10;;;2.80;;
77262;SDS011;66373;52.334;4.806;2023-02-18T11:41:18;9.27;;;2.95;;
77262;SDS011;66373;52.334;4.806;2023-02-18T11:43:47;8.32;;;2.97;;
77262;SDS011;66373;52.334;4.806;2023-02-18T11:46:16;9.25;;;2.90;;
77262;SDS011;66373;52.334;4.806;2023-02-18T11:48:45;9.80;;;2.70;;
77262;SDS011;66373;52.334;4.806;2023-02-18T11:51:14;7.60;;;2.72;;
77262;SDS011;66373;52.334;4.806;2023-02-18T11:53:56;11.30;;;3.40;;
77262;SDS011;66373;52.334;4.806;2023-02-18T11:56:27;7.40;;;2.72;;
77262;SDS011;66373;52.334;4.806;2023-02-18T11:58:56;11.68;;;3.78;;
77262;SDS011;66373;52.334;4.806;2023-02-18T12:01:27;9.05;;;2.70;;
77262;SDS011;66373;52.334;4.806;2023-02-18T12:04:04;6.75;;;2.97;;
77262;SDS011;66373;52.334;4.806;2023-02-18T12:06:35;9.38;;;3.22;;
77262;SDS011;66373;52.334;4.806;2023-02-18T12:09:06;10.68;;;3.40;;
77262;SDS011;66373;52.334;4.806;2023-02-18T12:11:46;11.73;;;3.80;;
77262;SDS011;66373;52.334;4.806;2023-02-18T12:14:17;11.13;;;3.35;;
77262;SDS011;66373;52.334;4.806;2023-02-18T12:16:50;8.27;;;3.55;;
77262;SDS011;66373;52.334;4.806;2023-02-18T12:22:56;9.38;;;3.92;;
77262;SDS011;66373;52.334;4.806;2023-02-18T12:29:19;6.55;;;3.30;;
77262;SDS011;66373;52.334;4.806;2023-02-18T12:32:02;9.07;;;3.53;;
77262;SDS011;66373;52.334;4.806;2023-02-18T12:34:51;11.70;;;4.00;;
77262;SDS011;66373;52.334;4.806;2023-02-18T12:37:45;7.53;;;3.38;;
77262;SDS011;66373;52.334;4.806;2023-02-18T12:40:31;8.15;;;3.33;;
77262;SDS011;66373;52.334;4.806;2023-02-18T12:43:14;9.50;;;3.55;;
77262;SDS011;66373;52.334;4.806;2023-02-18T12:48:23;10.73;;;4.20;;
77262;SDS011;66373;52.334;4.806;2023-02-18T12:51:37;12.50;;;3.55;;
77262;SDS011;66373;52.334;4.806;2023-02-18T12:57:12;12.15;;;3.33;;
77262;SDS011;66373;52.334;4.806;2023-02-18T13:03:10;11.52;;;3.55;;
77262;SDS011;66373;52.334;4.806;2023-02-18T13:06:15;17.55;;;3.28;;
77262;SDS011;66373;52.334;4.806;2023-02-18T13:08:56;23.33;;;3.60;;
77262;SDS011;66373;52.334;4.806;2023-02-18T13:11:46;16.88;;;3.60;;
77262;SDS011;66373;52.334;4.806;2023-02-18T13:14:22;20.42;;;4.00;;
77262;SDS011;66373;52.334;4.806;2023-02-18T13:16:53;22.08;;;3.63;;
77262;SDS011;66373;52.334;4.806;2023-02-18T13:19:24;21.30;;;4.57;;
77262;SDS011;66373;52.334;4.806;2023-02-18T13:21:57;15.93;;;3.50;;
77262;SDS011;66373;52.334;4.806;2023-02-18T13:24:29;11.43;;;3.03;;
77262;SDS011;66373;52.334;4.806;2023-02-18T13:27:02;14.85;;;3.97;;
77262;SDS011;66373;52.334;4.806;2023-02-18T13:29:41;14.02;;;3.60;;
77262;SDS011;66373;52.334;4.806;2023-02-18T13:32:19;12.45;;;3.83;;
77262;SDS011;66373;52.334;4.806;2023-02-18T13:34:50;18.88;;;3.50;;
77262;SDS011;66373;52.334;4.806;2023-02-18T13:37:28;14.45;;;3.22;;
77262;SDS011;66373;52.334;4.806;2023-02-18T13:40:01;11.32;;;3.05;;
77262;SDS011;66373;52.334;4.806;2023-02-18T13:42:33;13.82;;;3.05;;
77262;SDS011;66373;52.334;4.806;2023-02-18T13:45:04;7.40;;;3.28;;
77262;SDS011;66373;52.334;4.806;2023-02-18T13:47:46;7.35;;;2.97;;
77262;SDS011;66373;52.334;4.806;2023-02-18T13:50:26;8.27;;;3.08;;
77262;SDS011;66373;52.334;4.806;2023-02-18T13:55:49;9.68;;;2.70;;
77262;SDS011;66373;52.334;4.806;2023-02-18T13:58:20;8.05;;;2.95;;
77262;SDS011;66373;52.334;4.806;2023-02-18T14:00:53;9.65;;;2.65;;
77262;SDS011;66373;52.334;4.806;2023-02-18T14:03:36;4.20;;;2.47;;
77262;SDS011;66373;52.334;4.806;2023-02-18T14:06:22;6.03;;;2.58;;
77262;SDS011;66373;52.334;4.806;2023-02-18T14:09:01;6.35;;;2.40;;
77262;SDS011;66373;52.334;4.806;2023-02-18T14:11:47;5.85;;;2.70;;
77262;SDS011;66373;52.334;4.806;2023-02-18T14:14:32;7.70;;;2.70;;
77262;SDS011;66373;52.334;4.806;2023-02-18T14:20:29;8.95;;;2.60;;
77262;SDS011;66373;52.334;4.806;2023-02-18T14:23:11;6.80;;;2.80;;
77262;SDS011;66373;52.334;4.806;2023-02-18T14:25:57;9.50;;;2.85;;
77262;SDS011;66373;52.334;4.806;2023-02-18T14:28:36;6.88;;;2.90;;
77262;SDS011;66373;52.334;4.806;2023-02-18T14:31:16;6.90;;;2.65;;
77262;SDS011;66373;52.334;4.806;2023-02-18T14:33:54;7.88;;;2.38;;
77262;SDS011;66373;52.334;4.806;2023-02-18T14:36:41;8.57;;;2.72;;
77262;SDS011;66373;52.334;4.806;2023-02-18T14:39:22;9.30;;;2.78;;
77262;SDS011;66373;52.334;4.806;2023-02-18T14:42:03;4.40;;;2.45;;
77262;SDS011;66373;52.334;4.806;2023-02-18T14:44:49;8.50;;;2.67;;
77262;SDS011;66373;52.334;4.806;2023-02-18T14:47:27;4.22;;;2.25;;
77262;SDS011;66373;52.334;4.806;2023-02-18T14:50:08;8.27;;;2.72;;
77262;SDS011;66373;52.334;4.806;2023-02-18T14:52:39;10.45;;;2.60;;
77262;SDS011;66373;52.334;4.806;2023-02-18T14:55:13;7.45;;;3.20;;
77262;SDS011;66373;52.334;4.806;2023-02-18T14:57:47;6.60;;;2.65;;
77262;SDS011;66373;52.334;4.806;2023-02-18T15:00:18;7.00;;;2.65;;
77262;SDS011;66373;52.334;4.806;2023-02-18T15:02:47;8.68;;;2.95;;
77262;SDS011;66373;52.334;4.806;2023-02-18T15:05:18;10.60;;;2.90;;
77262;SDS011;66373;52.334;4.806;2023-02-18T15:07:56;8.40;;;2.90;;
77262;SDS011;66373;52.334;4.806;2023-02-18T15:10:31;6.70;;;2.80;;
77262;SDS011;66373;52.334;4.806;2023-02-18T15:13:07;5.85;;;2.45;;
77262;SDS011;66373;52.334;4.806;2023-02-18T15:15:40;5.75;;;2.72;;
77262;SDS011;66373;52.334;4.806;2023-02-18T15:18:12;10.57;;;2.72;;
77262;SDS011;66373;52.334;4.806;2023-02-18T15:20:47;11.82;;;2.58;;
77262;SDS011;66373;52.334;4.806;2023-02-18T15:23:14;5.20;;;2.53;;
77262;SDS011;66373;52.334;4.806;2023-02-18T15:25:43;10.13;;;2.40;;
77262;SDS011;66373;52.334;4.806;2023-02-18T15:28:23;5.90;;;3.00;;
77262;SDS011;66373;52.334;4.806;2023-02-18T15:30:52;7.88;;;2.83;;
77262;SDS011;66373;52.334;4.806;2023-02-18T15:33:20;7.68;;;2.47;;
77262;SDS011;66373;52.334;4.806;2023-02-18T15:35:47;4.53;;;2.40;;
77262;SDS011;66373;52.334;4.806;2023-02-18T15:38:14;6.95;;;2.70;;
77262;SDS011;66373;52.334;4.806;2023-02-18T15:40:43;6.57;;;2.58;;
77262;SDS011;66373;52.334;4.806;2023-02-18T15:43:15;5.07;;;2.22;;
77262;SDS011;66373;52.334;4.806;2023-02-18T15:48:19;11.70;;;2.83;;